createdAt,value
2022-10-24T00:01:55.229Z,97.51
2022-10-24T00:06:58.643Z,97.55
2022-10-24T00:12:02.383Z,97.58
2022-10-24T00:17:07.720Z,97.63
2022-10-24T00:22:10.825Z,97.67
2022-10-24T00:27:14.035Z,97.74
2022-10-24T00:32:17.139Z,97.80
2022-10-24T00:42:28.471Z,97.83
2022-10-24T00:47:31.385Z,97.86
2022-10-24T00:52:38.378Z,97.89
2022-10-24T00:57:50.689Z,97.92
2022-10-24T01:02:54.202Z,97.93
2022-10-24T01:08:12.674Z,97.95
2022-10-24T01:13:31.034Z,97.93
2022-10-24T01:18:48.621Z,97.93
2022-10-24T01:24:19.740Z,97.95
2022-10-24T01:29:44.451Z,97.97
2022-10-24T01:35:14.546Z,97.99
2022-10-24T01:40:33.260Z,98.00
2022-10-24T01:45:41.999Z,98.01
2022-10-24T01:50:48.107Z,98.02
2022-10-24T01:55:51.488Z,98.04
2022-10-24T02:01:00.335Z,98.04
2022-10-24T02:06:18.689Z,98.05
2022-10-24T02:11:22.001Z,98.07
2022-10-24T02:16:25.110Z,98.11
2022-10-24T02:21:42.540Z,98.13
2022-10-24T02:26:54.489Z,98.13
2022-10-24T02:31:59.344Z,98.14
2022-10-24T02:37:05.277Z,98.17
2022-10-24T02:42:09.602Z,98.20
2022-10-24T02:47:14.360Z,98.21
2022-10-24T02:52:18.279Z,98.23
2022-10-24T02:57:22.219Z,98.23
2022-10-24T03:02:25.413Z,98.21
2022-10-24T03:07:28.314Z,98.18
2022-10-24T03:12:31.624Z,98.17
2022-10-24T03:17:34.830Z,98.17
2022-10-24T03:22:37.938Z,98.17
2022-10-24T03:27:41.043Z,98.18
2022-10-24T03:32:44.539Z,98.18
2022-10-24T03:37:48.381Z,98.18
2022-10-24T03:42:51.551Z,98.19
2022-10-24T03:47:54.699Z,98.19
2022-10-24T03:52:57.798Z,98.18
2022-10-24T03:58:00.903Z,98.16
2022-10-24T04:03:04.112Z,98.16
2022-10-24T04:08:07.319Z,98.14
2022-10-24T04:13:11.342Z,98.12
2022-10-24T04:18:14.452Z,98.11
2022-10-24T04:23:17.557Z,98.10
2022-10-24T04:28:20.664Z,98.08
2022-10-24T04:33:24.501Z,98.07
2022-10-24T04:38:33.218Z,98.07
2022-10-24T04:43:36.944Z,98.05
2022-10-24T04:48:40.355Z,98.03
2022-10-24T04:53:43.363Z,97.97
2022-10-24T04:58:46.669Z,97.91
2022-10-24T05:03:49.727Z,97.91
2022-10-24T05:08:53.073Z,97.87
2022-10-24T05:13:56.806Z,97.84
2022-10-24T05:18:59.706Z,97.82
2022-10-24T05:24:02.915Z,97.80
2022-10-24T05:34:10.523Z,97.71
2022-10-24T05:39:13.870Z,97.64
2022-10-24T05:44:16.973Z,97.58
2022-10-24T05:49:20.286Z,97.53
2022-10-24T05:54:23.184Z,97.47
2022-10-24T05:59:26.392Z,97.41
2022-10-24T06:04:29.498Z,97.36
2022-10-24T06:09:32.604Z,97.34
2022-10-24T06:14:36.426Z,97.33
2022-10-24T06:19:40.124Z,97.23
2022-10-24T06:24:43.557Z,97.05
2022-10-24T06:29:46.764Z,96.92
2022-10-24T06:34:50.485Z,96.83
2022-10-24T06:39:54.411Z,96.74
2022-10-24T06:44:57.620Z,96.59
2022-10-24T06:50:00.620Z,96.48
2022-10-24T06:55:05.750Z,96.36
2022-10-24T07:00:10.698Z,96.22
2022-10-24T07:05:14.749Z,95.91
2022-10-24T07:10:18.368Z,95.79
2022-10-24T07:15:21.780Z,95.63
2022-10-24T07:20:25.175Z,95.49
2022-10-24T07:25:28.376Z,95.35
2022-10-24T07:30:31.711Z,95.29
2022-10-24T07:35:35.226Z,95.07
2022-10-24T07:40:38.639Z,94.87
2022-10-24T07:45:42.450Z,94.82
2022-10-24T07:50:47.920Z,94.60
2022-10-24T07:55:50.926Z,94.52
2022-10-24T08:00:54.356Z,94.23
2022-10-24T08:05:57.647Z,93.82
2022-10-24T08:16:12.259Z,93.39
2022-10-24T08:21:17.437Z,93.16
2022-10-24T08:26:22.870Z,92.69
2022-10-24T08:31:26.918Z,92.20
2022-10-24T08:36:32.153Z,91.97
2022-10-24T08:41:39.251Z,91.94
2022-10-24T08:46:50.977Z,91.63
2022-10-24T08:51:58.263Z,91.58
2022-10-24T08:57:02.597Z,91.71
2022-10-24T09:02:12.671Z,91.20
2022-10-24T09:07:21.005Z,91.05
2022-10-24T09:12:25.007Z,91.33
2022-10-24T09:17:34.334Z,91.15
2022-10-24T09:22:39.486Z,90.79
2022-10-24T09:27:45.963Z,90.29
2022-10-24T09:32:49.730Z,90.54
2022-10-24T09:37:58.263Z,90.77
2022-10-24T09:43:13.859Z,90.98
2022-10-24T09:48:32.725Z,91.22
2022-10-24T09:53:39.433Z,91.36
2022-10-24T09:58:43.351Z,91.72
2022-10-24T10:04:09.422Z,91.73
2022-10-24T10:09:16.803Z,91.89
2022-10-24T10:14:24.222Z,92.20
2022-10-24T10:19:29.921Z,92.42
2022-10-24T10:24:35.947Z,92.49
2022-10-24T10:29:39.053Z,92.25
2022-10-24T10:34:51.680Z,91.96
2022-10-24T10:39:57.958Z,91.96
2022-10-24T10:45:17.659Z,92.04
2022-10-24T10:50:41.754Z,91.16
2022-10-24T10:55:58.374Z,90.75
2022-10-24T11:01:23.937Z,89.32
2022-10-24T11:06:42.167Z,89.07
2022-10-24T11:12:13.637Z,89.37
2022-10-24T11:17:24.015Z,89.48
2022-10-24T11:22:32.852Z,89.43
2022-10-24T11:27:45.177Z,89.82
2022-10-24T11:33:00.157Z,89.80
2022-10-24T11:38:14.018Z,89.44
2022-10-24T11:43:22.547Z,88.89
2022-10-24T11:48:42.896Z,88.51
2022-10-24T11:54:00.299Z,88.51
2022-10-24T11:59:06.475Z,88.89
2022-10-24T12:04:32.224Z,88.20
2022-10-24T12:09:35.215Z,87.39
2022-10-24T12:15:20.628Z,86.66
2022-10-24T12:20:26.241Z,86.40
2022-10-24T12:25:37.852Z,85.40
2022-10-24T12:30:41.023Z,85.76
2022-10-24T12:35:49.307Z,85.58
2022-10-24T12:41:09.728Z,86.48
2022-10-24T12:46:21.665Z,86.13
2022-10-24T12:51:33.139Z,86.22
2022-10-24T12:56:37.370Z,86.84
2022-10-24T13:01:41.051Z,87.23
2022-10-24T13:07:03.043Z,87.30
2022-10-24T13:12:43.827Z,87.58
2022-10-24T13:18:17.760Z,87.88
2022-10-24T13:23:25.276Z,88.05
2022-10-24T13:28:30.629Z,88.41
2022-10-24T13:33:33.731Z,88.64
2022-10-24T13:38:42.262Z,88.75
2022-10-24T13:43:49.873Z,88.71
2022-10-24T13:48:54.925Z,89.03
2022-10-24T13:54:07.552Z,89.17
2022-10-24T13:59:37.897Z,89.35
2022-10-24T14:04:47.141Z,89.55
2022-10-24T14:10:13.264Z,89.55
2022-10-24T14:15:22.628Z,89.76
2022-10-24T14:20:38.011Z,89.92
2022-10-24T14:25:41.347Z,90.07
2022-10-24T14:30:57.365Z,90.22
2022-10-24T14:36:03.964Z,90.34
2022-10-24T14:41:12.131Z,90.73
2022-10-24T14:46:15.994Z,91.05
2022-10-24T14:51:28.520Z,91.21
2022-10-24T14:56:35.250Z,91.35
2022-10-24T15:01:38.592Z,91.55
2022-10-24T15:06:44.293Z,91.81
2022-10-24T15:11:58.759Z,91.98
2022-10-24T15:17:32.755Z,92.26
2022-10-24T15:22:38.656Z,92.32
2022-10-24T15:27:45.693Z,92.49
2022-10-24T15:32:51.410Z,92.67
2022-10-24T15:38:14.908Z,93.03
2022-10-24T15:43:20.402Z,93.02
2022-10-24T15:48:24.025Z,92.80
2022-10-24T15:53:28.223Z,92.66
2022-10-24T15:58:32.252Z,92.52
2022-10-24T16:03:35.964Z,92.69
2022-10-24T16:08:40.295Z,92.75
2022-10-24T16:13:43.412Z,92.78
2022-10-24T16:18:47.324Z,92.82
2022-10-24T16:28:54.764Z,92.66
2022-10-24T16:33:59.289Z,92.52
2022-10-24T16:39:03.821Z,92.49
2022-10-24T16:44:07.160Z,92.63
2022-10-24T16:49:10.366Z,93.05
2022-10-24T16:54:14.182Z,93.30
2022-10-24T16:59:17.699Z,93.57
2022-10-24T17:04:21.683Z,93.90
2022-10-24T17:09:25.149Z,94.06
2022-10-24T17:14:29.709Z,94.09
2022-10-24T17:19:35.963Z,94.13
2022-10-24T17:24:39.417Z,94.08
2022-10-24T17:29:43.502Z,94.12
2022-10-24T17:34:50.397Z,94.36
2022-10-24T17:39:53.460Z,94.59
2022-10-24T17:44:57.119Z,94.91
2022-10-24T17:50:00.327Z,95.13
2022-10-24T17:55:05.688Z,95.34
2022-10-24T18:00:15.446Z,95.61
2022-10-24T18:05:21.217Z,95.75
2022-10-24T18:10:25.244Z,95.76
2022-10-24T18:15:29.678Z,95.84
2022-10-24T18:20:33.717Z,95.92
2022-10-24T18:25:38.142Z,95.95
2022-10-24T18:30:41.351Z,95.95
2022-10-24T18:35:44.762Z,95.95
2022-10-24T18:40:48.075Z,95.92
2022-10-24T18:45:52.613Z,95.76
2022-10-24T18:50:56.991Z,95.85
2022-10-24T18:56:00.638Z,95.95
2022-10-24T19:01:05.671Z,96.16
2022-10-24T19:06:29.900Z,96.44
2022-10-24T19:11:33.541Z,96.78
2022-10-24T19:16:36.953Z,96.84
2022-10-24T19:21:40.471Z,96.90
2022-10-24T19:26:43.981Z,96.97
2022-10-24T19:31:47.395Z,96.99
2022-10-24T19:36:51.742Z,97.14
2022-10-24T19:41:55.467Z,97.20
2022-10-24T19:46:59.199Z,97.24
2022-10-24T19:52:03.911Z,97.26
2022-10-24T19:57:07.327Z,97.26
2022-10-24T20:02:12.612Z,97.30
2022-10-24T20:07:18.146Z,97.36
2022-10-24T20:12:21.566Z,97.45
2022-10-24T20:17:25.380Z,97.48
2022-10-24T20:22:28.700Z,97.50
2022-10-24T20:27:32.102Z,97.51
2022-10-24T20:32:35.212Z,97.51
2022-10-24T20:37:38.315Z,97.47
2022-10-24T20:42:41.628Z,97.44
2022-10-24T20:47:45.464Z,97.43
2022-10-24T20:52:49.181Z,97.43
2022-10-24T20:57:53.298Z,97.42
2022-10-24T21:02:57.227Z,97.40
2022-10-24T21:08:00.639Z,97.37
2022-10-24T21:13:04.663Z,97.35
2022-10-24T21:18:07.872Z,97.34
2022-10-24T21:23:10.773Z,97.36
2022-10-24T21:28:13.890Z,97.35
2022-10-24T21:33:17.087Z,97.35
2022-10-24T21:38:20.191Z,97.34
2022-10-24T21:43:23.298Z,97.34
2022-10-24T21:48:26.506Z,97.32
2022-10-24T21:53:29.714Z,97.30
2022-10-24T21:58:33.024Z,97.26
2022-10-24T22:03:36.643Z,97.25
2022-10-24T22:08:40.978Z,97.24
2022-10-24T22:13:45.459Z,97.25
2022-10-24T22:18:49.031Z,97.26
2022-10-24T22:23:52.733Z,97.31
2022-10-24T22:28:56.268Z,97.32
2022-10-24T22:33:59.988Z,97.33
2022-10-24T22:39:03.911Z,97.33
2022-10-24T22:44:08.909Z,97.30
2022-10-24T22:49:27.127Z,97.26
2022-10-24T22:54:35.655Z,97.06
2022-10-24T22:59:39.171Z,96.97
2022-10-24T23:04:51.628Z,96.96
2022-10-24T23:09:54.905Z,96.98
2022-10-24T23:14:58.521Z,97.02
2022-10-24T23:20:02.156Z,97.03
2022-10-24T23:25:07.089Z,97.09
2022-10-24T23:30:22.707Z,97.07
2022-10-24T23:35:26.521Z,97.00
2022-10-24T23:40:29.619Z,96.95
2022-10-24T23:45:35.998Z,96.87
2022-10-24T23:50:42.075Z,96.79
2022-10-24T23:55:45.595Z,96.81
